Time;durP1;ratioP1;P1;durP2;ratioP2;P2;SDS_P1;SDS_P2;PMS_P1;PMS_P2;Temp;Humidity;BMP_temperature;BMP_pressure;BME280_temperature;BME280_humidity;BME280_pressure;Samples;Min_cycle;Max_cycle;Signal;HPM_P1;HPM_P2
2022/08/06 00:02:20;;;;;;;12.27;7.07;;;;;;;-141.28;100.00;45644.38;5089509;28;20204;-75
2022/08/06 00:04:49;;;;;;;7.53;5.90;;;;;;;-141.28;100.00;45601.25;5089724;28;20628;-75
2022/08/06 00:07:16;;;;;;;5.40;4.90;;;;;;;-141.28;100.00;45571.84;5084245;28;20196;-76
2022/08/06 00:09:43;;;;;;;6.97;4.23;;;;;;;-141.28;100.00;45587.53;5075252;28;20230;-76
2022/08/06 00:12:11;;;;;;;6.97;4.00;;;;;;;-141.28;100.00;45626.72;5072787;28;20667;-75
2022/08/06 00:14:38;;;;;;;4.70;4.30;;;;;;;-141.28;100.00;45640.47;5081572;28;20206;-75
2022/08/06 00:17:06;;;;;;;5.93;4.00;;;;;;;-141.28;100.00;45675.75;5092683;28;20603;-75
2022/08/06 00:19:33;;;;;;;6.63;4.13;;;;;;;-141.28;100.00;45691.41;5093007;28;20207;-76
2022/08/06 00:22:02;;;;;;;5.50;4.20;;;;;;;-141.28;100.00;45685.53;5091986;28;20215;-76
2022/08/06 00:24:29;;;;;;;10.70;4.73;;;;;;;-141.28;100.00;45634.56;5092617;28;20195;-75
2022/08/06 00:26:56;;;;;;;7.30;4.47;;;;;;;-141.28;100.00;45630.66;5092088;28;20252;-74
2022/08/06 00:29:23;;;;;;;5.67;4.30;;;;;;;-141.28;100.00;45634.56;5092390;28;20234;-76
2022/08/06 00:31:50;;;;;;;4.77;4.33;;;;;;;-141.28;100.00;45618.91;5078573;28;20230;-75
2022/08/06 00:34:17;;;;;;;4.80;4.33;;;;;;;-141.28;100.00;45630.66;5075217;28;20239;-75
2022/08/06 00:36:44;;;;;;;8.73;4.47;;;;;;;-141.28;100.00;45644.38;5092581;28;20268;-75
2022/08/06 00:39:13;;;;;;;6.17;4.73;;;;;;;-141.28;100.00;45622.81;5090544;28;20205;-75
2022/08/06 00:41:41;;;;;;;4.70;4.13;;;;;;;-141.28;100.00;45622.81;5063642;28;20203;-75
2022/08/06 00:44:10;;;;;;;5.33;4.27;;;;;;;-141.28;100.00;45603.22;5072144;28;20204;-75
2022/08/06 00:46:37;;;;;;;4.90;4.50;;;;;;;-141.28;100.00;45628.69;5072578;28;20192;-73
2022/08/06 00:49:04;;;;;;;7.27;4.30;;;;;;;-141.28;100.00;45662.00;5072232;28;20196;-75
2022/08/06 00:51:31;;;;;;;4.57;4.10;;;;;;;-141.28;100.00;45681.63;5081084;28;20196;-74
2022/08/06 00:53:58;;;;;;;5.77;4.47;;;;;;;-141.28;100.00;45701.22;5091961;28;20203;-76
2022/08/06 00:56:26;;;;;;;4.90;4.40;;;;;;;-141.28;100.00;45712.97;5078682;28;20187;-75
2022/08/06 00:58:56;;;;;;;5.67;4.17;;;;;;;-141.28;100.00;45709.06;5081773;28;20204;-76
2022/08/06 01:01:23;;;;;;;4.30;3.90;;;;;;;-141.28;100.00;45711.03;5076070;28;20199;-74
2022/08/06 01:03:51;;;;;;;5.70;4.37;;;;;;;-141.28;100.00;45714.94;5081990;28;20211;-75
2022/08/06 01:06:19;;;;;;;4.43;4.03;;;;;;;-141.28;100.00;45712.97;5070992;28;20204;-74
2022/08/06 01:08:47;;;;;;;6.60;4.23;;;;;;;-141.28;100.00;45724.75;5078490;28;20191;-76
2022/08/06 01:11:16;;;;;;;4.20;3.80;;;;;;;-141.28;100.00;45724.75;5091201;28;20227;-75
2022/08/06 01:13:44;;;;;;;4.27;3.97;;;;;;;-141.28;100.00;45707.09;5088804;28;20204;-74
2022/08/06 01:16:16;;;;;;;6.50;4.20;;;;;;;-141.28;100.00;45701.22;5082309;28;20200;-75
2022/08/06 01:18:51;;;;;;;7.50;3.87;;;;;;;-141.28;100.00;45693.38;5092479;28;20200;-74
2022/08/06 01:21:38;;;;;;;4.90;4.13;;;;;;;-141.28;100.00;45677.69;5091529;28;20191;-76
2022/08/06 01:24:34;;;;;;;6.33;4.10;;;;;;;-141.28;100.00;45662.00;5081104;28;20199;-75
2022/08/06 01:27:20;;;;;;;4.40;3.87;;;;;;;-141.28;100.00;45665.94;5078620;28;20211;-76
2022/08/06 01:29:53;;;;;;;4.87;4.17;;;;;;;-141.28;100.00;45673.78;5091491;28;20275;-75
2022/08/06 01:32:25;;;;;;;4.60;4.07;;;;;;;-141.28;100.00;45677.69;5081843;28;20200;-75
2022/08/06 01:34:55;;;;;;;4.70;4.30;;;;;;;-141.28;100.00;45677.69;5071549;28;20239;-76
2022/08/06 01:37:27;;;;;;;4.50;4.10;;;;;;;-141.28;100.00;45671.81;5072175;28;20203;-75
2022/08/06 01:39:58;;;;;;;4.97;4.47;;;;;;;-141.28;100.00;45667.91;5071795;28;20227;-75
2022/08/06 01:42:29;;;;;;;4.27;3.83;;;;;;;-141.28;100.00;45667.91;5085285;28;20658;-74
2022/08/06 01:45:01;;;;;;;5.40;3.87;;;;;;;-141.28;100.00;45662.00;5075178;28;20199;-76
2022/08/06 01:47:31;;;;;;;5.03;4.23;;;;;;;-141.28;100.00;45654.19;5071359;28;20192;-74
2022/08/06 01:50:04;;;;;;;5.37;4.50;;;;;;;-141.28;100.00;45663.97;5071284;28;20228;-75
2022/08/06 01:52:35;;;;;;;5.53;4.47;;;;;;;-141.28;100.00;45658.09;5074197;28;20204;-74
2022/08/06 01:55:04;;;;;;;4.80;4.40;;;;;;;-141.28;100.00;45669.84;5071566;28;20229;-74
2022/08/06 01:57:35;;;;;;;4.80;4.40;;;;;;;-141.28;100.00;45652.22;5071280;28;20270;-76
2022/08/06 02:00:06;;;;;;;6.30;4.50;;;;;;;-141.28;100.00;45638.50;5083648;28;20588;-75
2022/08/06 02:02:36;;;;;;;5.63;4.57;;;;;;;-141.28;100.00;45618.91;5079903;28;20296;-74
2022/08/06 02:05:05;;;;;;;4.97;4.40;;;;;;;-141.28;100.00;45613.00;5077916;28;20200;-76
2022/08/06 02:07:36;;;;;;;7.40;5.10;;;;;;;-141.28;100.00;45609.09;5070158;28;20226;-76
2022/08/06 02:10:06;;;;;;;5.43;4.93;;;;;;;-141.28;100.00;45611.06;5083795;28;20223;-76
2022/08/06 02:12:37;;;;;;;6.67;4.83;;;;;;;-141.28;100.00;45611.06;5071434;28;20204;-75
2022/08/06 02:15:10;;;;;;;5.27;4.60;;;;;;;-141.28;100.00;45603.22;5071205;28;20196;-76
2022/08/06 02:17:42;;;;;;;5.80;5.23;;;;;;;-141.28;100.00;45591.44;5072041;28;20257;-76
2022/08/06 02:20:12;;;;;;;8.67;4.37;;;;;;;-141.28;100.00;45601.25;5075558;28;20196;-74
2022/08/06 02:22:40;;;;;;;7.43;4.47;;;;;;;-141.28;100.00;45603.22;5079471;28;20200;-74
2022/08/06 02:25:11;;;;;;;5.03;4.53;;;;;;;-141.28;100.00;45611.06;5071016;28;20193;-74
2022/08/06 02:27:45;;;;;;;5.10;4.30;;;;;;;-141.28;100.00;45648.28;5071525;28;20200;-75
2022/08/06 02:30:13;;;;;;;5.27;4.77;;;;;;;-141.28;100.00;45611.06;5058281;28;20219;-74
2022/08/06 02:32:41;;;;;;;5.77;4.77;;;;;;;-141.28;100.00;45614.97;5071411;28;20258;-75
2022/08/06 02:35:10;;;;;;;5.00;4.60;;;;;;;-141.28;100.00;45611.06;5070751;28;20694;-76
2022/08/06 02:37:42;;;;;;;7.80;4.57;;;;;;;-141.28;100.00;45613.00;5071538;28;20200;-75
2022/08/06 02:40:12;;;;;;;5.13;4.60;;;;;;;-141.28;100.00;45622.81;5072309;28;20200;-75
2022/08/06 02:42:49;;;;;;;5.20;4.70;;;;;;;-141.28;100.00;45622.81;5071723;28;20262;-75
2022/08/06 02:45:20;;;;;;;10.03;4.73;;;;;;;-141.28;100.00;45628.69;5060583;28;20192;-74
2022/08/06 02:47:53;;;;;;;5.63;5.00;;;;;;;-141.28;100.00;45638.50;5072070;28;20208;-73
2022/08/06 02:50:28;;;;;;;6.27;4.47;;;;;;;-141.28;100.00;45634.56;5071413;28;20228;-75
2022/08/06 02:52:59;;;;;;;6.23;5.27;;;;;;;-141.28;100.00;45685.53;5071616;28;20193;-75
2022/08/06 02:55:33;;;;;;;6.80;5.10;;;;;;;-141.28;100.00;45732.56;5086876;28;20598;-75
2022/08/06 02:58:11;;;;;;;8.93;7.07;;;;;;;-141.28;100.00;45754.13;5094795;28;20199;-75
2022/08/06 03:00:42;;;;;;;12.33;7.70;;;;;;;-141.28;100.00;45760.03;5091192;28;20199;-75
2022/08/06 03:03:11;;;;;;;12.07;7.00;;;;;;;-141.28;100.00;45775.69;5085386;28;20539;-74
2022/08/06 03:05:42;;;;;;;14.70;7.63;;;;;;;-141.28;100.00;45771.78;5089823;28;20192;-75
2022/08/06 03:08:11;;;;;;;16.30;7.90;;;;;;;-141.28;100.00;45783.53;5084540;28;20195;-77
2022/08/06 03:10:39;;;;;;;11.60;7.73;;;;;;;-141.28;100.00;45791.38;5074108;28;20698;-74
2022/08/06 03:13:08;;;;;;;11.10;7.73;;;;;;;-141.28;100.00;45787.47;5074355;28;20208;-76
2022/08/06 03:15:36;;;;;;;13.40;8.00;;;;;;;-141.28;100.00;45791.38;5074372;28;20204;-74
2022/08/06 03:18:05;;;;;;;11.37;7.30;;;;;;;-141.28;100.00;45801.19;5075034;28;20201;-75
2022/08/06 03:20:34;;;;;;;12.13;8.10;;;;;;;-141.28;100.00;45799.22;5075185;28;20208;-75
2022/08/06 03:23:07;;;;;;;11.87;7.97;;;;;;;-141.28;100.00;45803.16;5063259;28;20204;-73
2022/08/06 03:25:36;;;;;;;10.77;7.83;;;;;;;-141.28;100.00;45805.09;5090122;28;20195;-76
2022/08/06 03:28:04;;;;;;;10.27;7.23;;;;;;;-141.28;100.00;45793.34;5094341;28;20225;-75
2022/08/06 03:30:35;;;;;;;9.73;7.90;;;;;;;-141.28;100.00;45801.19;5093728;28;20215;-75
2022/08/06 03:33:06;;;;;;;9.33;6.90;;;;;;;-141.28;100.00;45818.81;5093971;28;20201;-75
2022/08/06 03:35:35;;;;;;;7.20;6.43;;;;;;;-141.28;100.00;45810.97;5088381;28;20215;-76
2022/08/06 03:38:03;;;;;;;13.20;7.87;;;;;;;-141.28;100.00;45810.97;5073689;28;20203;-74
2022/08/06 03:40:33;;;;;;;10.00;7.30;;;;;;;-141.28;100.00;45814.91;5074290;28;20203;-76
2022/08/06 03:43:00;;;;;;;9.73;6.17;;;;;;;-141.28;100.00;45814.91;5074437;28;20199;-76
2022/08/06 03:45:31;;;;;;;5.93;5.10;;;;;;;-141.28;100.00;45822.75;5073972;28;20679;-77
2022/08/06 03:48:02;;;;;;;6.13;4.93;;;;;;;-141.28;100.00;45820.78;5074044;28;20204;-74
2022/08/06 03:50:34;;;;;;;9.37;5.37;;;;;;;-141.28;100.00;45826.66;5073707;28;20231;-75
2022/08/06 03:53:03;;;;;;;6.47;5.30;;;;;;;-141.28;100.00;45830.59;5073850;28;20588;-76
2022/08/06 03:55:35;;;;;;;6.13;5.23;;;;;;;-141.28;100.00;45842.34;5073695;28;20200;-75
2022/08/06 03:58:06;;;;;;;7.87;5.00;;;;;;;-141.28;100.00;45842.34;5072535;28;20200;-75
2022/08/06 04:00:38;;;;;;;5.20;4.70;;;;;;;-141.28;100.00;45834.50;5074150;28;20214;-73
2022/08/06 04:03:08;;;;;;;9.27;5.73;;;;;;;-141.28;100.00;45830.59;5073545;28;20196;-75
2022/08/06 04:05:37;;;;;;;5.80;5.30;;;;;;;-141.28;100.00;45842.34;5081757;28;20200;-73
2022/08/06 04:08:06;;;;;;;7.03;5.30;;;;;;;-141.28;100.00;45842.34;5075030;28;20208;-75
2022/08/06 04:10:38;;;;;;;6.60;5.63;;;;;;;-141.28;100.00;45826.66;5074487;28;20220;-75
2022/08/06 04:13:09;;;;;;;7.97;4.70;;;;;;;-141.28;100.00;45838.44;5074223;28;20231;-76
2022/08/06 04:15:36;;;;;;;7.77;5.30;;;;;;;-141.28;100.00;45836.47;5073810;28;20219;-75
2022/08/06 04:18:05;;;;;;;6.63;5.37;;;;;;;-141.28;100.00;45838.44;5074159;28;20200;-76
2022/08/06 04:20:50;;;;;;;6.37;5.20;;;;;;;-141.28;100.00;45809.03;5073787;28;20204;-77
2022/08/06 04:23:17;;;;;;;6.23;5.37;;;;;;;-141.28;100.00;45822.75;5073747;28;20199;-74
2022/08/06 04:25:50;;;;;;;6.43;5.00;;;;;;;-141.28;100.00;45814.91;5073119;28;20219;-74
2022/08/06 04:28:19;;;;;;;5.40;4.90;;;;;;;-141.28;100.00;45814.91;5074592;28;20624;-73
2022/08/06 04:30:48;;;;;;;6.07;5.47;;;;;;;-141.28;100.00;45810.97;5073208;28;20238;-75
2022/08/06 04:33:19;;;;;;;6.20;5.53;;;;;;;-141.28;100.00;45810.97;5074377;28;20208;-76
2022/08/06 04:35:48;;;;;;;6.43;5.73;;;;;;;-141.28;100.00;45803.16;5073794;28;20607;-75
2022/08/06 04:38:17;;;;;;;9.87;6.23;;;;;;;-141.28;100.00;45779.63;5073288;28;20404;-74
2022/08/06 04:40:45;;;;;;;10.40;6.30;;;;;;;-141.28;100.00;45760.03;5073937;28;20200;-77
2022/08/06 04:43:13;;;;;;;9.07;6.33;;;;;;;-141.28;100.00;45756.09;5065412;28;20193;-75
2022/08/06 04:45:42;;;;;;;10.23;6.27;;;;;;;-141.28;100.00;45773.75;5068145;28;20702;-76
2022/08/06 04:48:11;;;;;;;7.13;5.57;;;;;;;-141.28;100.00;45763.94;5073259;28;20200;-74
2022/08/06 04:50:38;;;;;;;10.70;5.73;;;;;;;-141.28;100.00;45787.47;5073220;28;20224;-76
2022/08/06 04:53:09;;;;;;;12.73;6.03;;;;;;;-141.28;100.00;45744.34;5073671;28;20192;-74
2022/08/06 04:55:37;;;;;;;10.67;6.13;;;;;;;-141.28;100.00;45726.69;5074072;28;20200;-76
2022/08/06 04:58:07;;;;;;;14.70;5.77;;;;;;;-141.28;100.00;45748.25;5073332;28;20192;-76
2022/08/06 05:00:37;;;;;;;11.60;6.10;;;;;;;-141.28;100.00;45738.47;5072600;28;20212;-74
2022/08/06 05:03:04;;;;;;;11.50;5.20;;;;;;;-141.28;100.00;45744.34;5072099;28;20196;-76
2022/08/06 05:05:35;;;;;;;10.80;6.47;;;;;;;-141.28;100.00;45736.50;5072294;28;20192;-75
2022/08/06 05:08:05;;;;;;;10.27;5.73;;;;;;;-141.28;100.00;45748.25;5072781;28;20196;-75
2022/08/06 05:10:40;;;;;;;9.67;6.40;;;;;;;-141.28;100.00;45740.41;5082796;28;20228;-76
2022/08/06 05:13:13;;;;;;;14.57;5.97;;;;;;;-141.28;100.00;45718.84;5070736;28;20249;-75
2022/08/06 05:15:43;;;;;;;18.03;6.37;;;;;;;-141.28;100.00;45724.75;5072141;28;20200;-75
2022/08/06 05:18:14;;;;;;;11.00;6.33;;;;;;;-141.28;100.00;45705.13;5085236;28;20201;-76
2022/08/06 05:20:48;;;;;;;13.73;6.50;;;;;;;-141.28;100.00;45709.06;5071623;28;20207;-76
2022/08/06 05:23:19;;;;;;;10.60;6.47;;;;;;;-141.28;100.00;45714.94;5068164;28;20208;-74
2022/08/06 05:25:48;;;;;;;9.17;6.47;;;;;;;-141.28;100.00;45724.75;5089743;28;20215;-75
2022/08/06 05:28:16;;;;;;;9.80;6.03;;;;;;;-141.28;100.00;45734.53;5080651;28;20199;-74
2022/08/06 05:30:51;;;;;;;10.63;6.30;;;;;;;-141.28;100.00;45734.53;5091843;28;20224;-77
2022/08/06 05:33:28;;;;;;;9.77;6.50;;;;;;;-141.28;100.00;45707.09;5092941;28;20195;-76
2022/08/06 05:35:59;;;;;;;15.90;6.73;;;;;;;-141.28;100.00;45693.38;5091878;28;20708;-74
2022/08/06 05:38:27;;;;;;;14.03;6.83;;;;;;;-141.28;100.00;45712.97;5092341;28;20218;-75
2022/08/06 05:40:58;;;;;;;13.00;6.80;;;;;;;-141.28;100.00;45728.66;5091595;28;20242;-76
2022/08/06 05:43:26;;;;;;;14.57;7.20;;;;;;;-141.28;100.00;45736.50;5059327;28;20208;-75
2022/08/06 05:46:01;;;;;;;14.33;6.93;;;;;;;-141.28;100.00;45732.56;5072412;28;20257;-78
2022/08/06 05:48:32;;;;;;;16.73;6.90;;;;;;;-141.28;100.00;45716.91;5072574;28;20277;-74
2022/08/06 05:51:06;;;;;;;12.63;6.90;;;;;;;-141.28;100.00;45740.41;5072342;28;20338;-75
2022/08/06 05:53:40;;;;;;;10.43;6.33;;;;;;;-141.28;100.00;45738.47;5071701;28;20207;-75
2022/08/06 05:56:25;;;;;;;13.77;6.97;;;;;;;-141.28;100.00;45716.91;5071734;28;20207;-77
2022/08/06 05:58:56;;;;;;;18.53;7.40;;;;;;;-141.28;100.00;45736.50;5071790;28;20192;-76
2022/08/06 06:01:27;;;;;;;17.03;7.00;;;;;;;-141.28;100.00;45744.34;5070467;28;20205;-76
2022/08/06 06:03:57;;;;;;;15.80;6.67;;;;;;;-141.28;100.00;45760.03;5075569;28;20640;-75
2022/08/06 06:06:26;;;;;;;18.90;6.57;;;;;;;-141.28;100.00;45769.81;5086948;28;20748;-76
2022/08/06 06:08:54;;;;;;;13.60;6.87;;;;;;;-141.28;100.00;45765.91;5072208;28;20657;-78
2022/08/06 06:11:25;;;;;;;11.23;6.17;;;;;;;-141.28;100.00;45771.78;5071931;28;20271;-75
2022/08/06 06:13:58;;;;;;;10.23;6.63;;;;;;;-141.28;100.00;45767.88;5074737;28;20572;-76
2022/08/06 06:16:31;;;;;;;14.90;6.50;;;;;;;-141.28;100.00;45799.22;5090823;28;20211;-77
2022/08/06 06:19:12;;;;;;;19.47;6.80;;;;;;;-141.28;100.00;45801.19;5091395;28;20562;-74
2022/08/06 06:21:51;;;;;;;11.63;6.30;;;;;;;-141.28;100.00;45814.91;5090902;28;20195;-78
2022/08/06 06:24:24;;;;;;;10.77;6.33;;;;;;;-141.28;100.00;45830.59;5072203;28;20199;-76
2022/08/06 06:26:57;;;;;;;8.33;5.67;;;;;;;-141.28;100.00;45850.19;5071699;28;20223;-77
2022/08/06 06:29:41;;;;;;;8.07;5.93;;;;;;;-141.28;100.00;45869.78;5060251;28;20260;-76
2022/08/06 06:32:14;;;;;;;13.33;5.90;;;;;;;-141.28;100.00;45897.22;5074456;28;20711;-75
2022/08/06 06:34:49;;;;;;;9.00;5.53;;;;;;;-141.28;100.00;45930.56;5075358;28;20228;-76
2022/08/06 06:37:24;;;;;;;8.97;5.73;;;;;;;-141.28;100.00;45924.69;5075582;28;20207;-76
2022/08/06 06:40:07;;;;;;;12.23;5.40;;;;;;;-141.28;100.00;46008.97;5075542;28;20206;-76
2022/08/06 06:42:39;;;;;;;17.57;5.80;;;;;;;-141.28;100.00;46081.50;5074928;28;20253;-77
2022/08/06 06:45:13;;;;;;;8.57;5.20;;;;;;;-141.28;100.00;46140.31;5074737;28;20226;-74
2022/08/06 06:47:46;;;;;;;12.30;5.13;;;;;;;-141.28;100.00;46161.88;5075156;28;20196;-75
2022/08/06 06:50:19;;;;;;;6.97;5.20;;;;;;;-141.28;100.00;46152.06;5075023;28;20208;-75
2022/08/06 06:52:50;;;;;;;10.03;5.20;;;;;;;-141.28;100.00;46163.84;5077807;28;20227;-75
2022/08/06 06:55:24;;;;;;;16.93;5.67;;;;;;;-141.28;100.00;46136.38;5079928;28;20213;-75
2022/08/06 06:57:58;;;;;;;11.47;5.17;;;;;;;-141.28;100.00;46157.94;5087542;28;20196;-74
2022/08/06 07:00:27;;;;;;;10.00;4.90;;;;;;;-141.28;100.00;46226.56;5089224;28;20267;-77
2022/08/06 07:02:56;;;;;;;6.53;5.00;;;;;;;-141.28;100.00;46291.25;5094576;28;20203;-75
2022/08/06 07:05:24;;;;;;;10.60;5.80;;;;;;;-141.28;100.00;46383.41;5094252;28;20598;-76
2022/08/06 07:07:52;;;;;;;9.17;5.07;;;;;;;-141.28;100.00;46434.38;5084911;28;20200;-76
2022/08/06 07:10:22;;;;;;;9.30;5.20;;;;;;;-141.28;100.00;46602.97;5074263;28;20210;-75
2022/08/06 07:12:50;;;;;;;10.07;5.40;;;;;;;-141.28;100.00;46716.69;5074193;28;20235;-75
2022/08/06 07:15:22;;;;;;;11.20;4.73;;;;;;;-141.28;100.00;46702.97;5074754;28;20658;-77
2022/08/06 07:17:52;;;;;;;8.63;5.10;;;;;;;-141.28;100.00;46773.56;5075477;28;20196;-76
2022/08/06 07:20:24;;;;;;;10.10;5.30;;;;;;;-141.28;100.00;46838.25;5074330;28;20705;-76
2022/08/06 07:22:53;;;;;;;5.70;5.20;;;;;;;-141.28;100.00;46885.31;5074926;28;20658;-75
2022/08/06 07:25:21;;;;;;;11.20;5.73;;;;;;;-141.28;100.00;46869.63;5082043;28;20199;-77
2022/08/06 07:27:52;;;;;;;9.60;6.13;;;;;;;-141.28;100.00;46991.22;5083926;28;20746;-76
2022/08/06 07:30:23;;;;;;;6.83;5.50;;;;;;;-141.28;100.00;46914.72;5092316;28;20200;-76
2022/08/06 07:32:50;;;;;;;11.00;5.97;;;;;;;-141.28;100.00;46852.00;5094125;28;20223;-74
2022/08/06 07:35:19;;;;;;;8.10;5.93;;;;;;;-141.28;100.00;46877.47;5093151;28;20236;-76
2022/08/06 07:37:52;;;;;;;11.20;6.10;;;;;;;-141.28;100.00;46916.69;5094034;28;20195;-75
2022/08/06 07:40:24;;;;;;;10.40;5.50;;;;;;;-141.28;100.00;46959.84;5082428;28;20203;-76
2022/08/06 07:42:56;;;;;;;11.07;6.13;;;;;;;-141.28;100.00;46936.31;5074237;28;20734;-77
2022/08/06 07:45:31;;;;;;;10.77;6.03;;;;;;;-141.28;100.00;47014.75;5074466;28;20202;-75
2022/08/06 07:48:01;;;;;;;9.43;6.20;;;;;;;-141.28;100.00;47026.50;5061255;28;20209;-76
2022/08/06 07:50:34;;;;;;;10.97;6.07;;;;;;;-141.28;100.00;47124.53;5074342;28;20576;-76
2022/08/06 07:53:02;;;;;;;13.63;6.73;;;;;;;-141.28;100.00;47124.53;5074146;28;20267;-76
2022/08/06 07:55:30;;;;;;;8.70;6.70;;;;;;;-141.28;100.00;47101.00;5073764;28;20801;-76
2022/08/06 07:58:03;;;;;;;17.40;6.40;;;;;;;-141.28;100.00;47046.09;5076176;28;20596;-74
2022/08/06 08:00:33;;;;;;;9.77;6.47;;;;;;;-141.28;100.00;47101.00;5097871;28;20197;-76
2022/08/06 08:08:31;;;;;;;10.90;6.40;;;;;;;-141.28;100.00;47348.09;5074009;28;20200;-77
2022/08/06 08:11:00;;;;;;;7.60;6.37;;;;;;;-141.28;100.00;47403.00;5073703;28;20203;-76
2022/08/06 08:13:28;;;;;;;10.23;5.40;;;;;;;-141.28;100.00;47355.94;5074115;28;20259;-76
2022/08/06 08:15:59;;;;;;;9.43;5.90;;;;;;;-141.28;100.00;47320.66;5073804;28;20545;-77
2022/08/06 08:18:31;;;;;;;7.63;6.17;;;;;;;-141.28;100.00;47377.50;5073375;28;20200;-76
2022/08/06 08:21:00;;;;;;;9.17;5.60;;;;;;;-141.28;100.00;47328.50;5074901;28;20275;-75
2022/08/06 08:23:30;;;;;;;8.17;5.77;;;;;;;-141.28;100.00;47391.25;5073864;28;20203;-75
2022/08/06 08:25:59;;;;;;;13.23;5.80;;;;;;;-141.28;100.00;47465.75;5075326;28;20284;-75
2022/08/06 08:28:26;;;;;;;8.27;5.60;;;;;;;-141.28;100.00;47491.25;5072572;28;20208;-76
2022/08/06 08:30:57;;;;;;;14.00;6.23;;;;;;;-141.28;100.00;47583.44;5075762;28;20683;-78
2022/08/06 08:33:26;;;;;;;7.30;5.60;;;;;;;-141.28;100.00;47650.13;5074339;28;20230;-75
2022/08/06 08:35:53;;;;;;;6.03;4.87;;;;;;;-141.28;100.00;47710.91;5071843;28;20326;-77
2022/08/06 08:38:21;;;;;;;6.87;5.10;;;;;;;-141.28;100.00;47779.56;5063914;28;20211;-75
2022/08/06 08:40:51;;;;;;;6.57;5.43;;;;;;;-141.28;100.00;47985.50;5075850;28;20248;-75
2022/08/06 08:43:22;;;;;;;6.07;5.17;;;;;;;-141.28;100.00;48089.47;5074364;28;20224;-75
2022/08/06 08:45:51;;;;;;;7.50;4.60;;;;;;;-141.28;100.00;48185.56;5076114;28;20199;-75
2022/08/06 08:48:21;;;;;;;7.93;5.37;;;;;;;-141.28;100.00;48230.69;5074058;28;20202;-76
2022/08/06 08:50:50;;;;;;;5.73;4.37;;;;;;;-141.28;100.00;48375.84;5075055;28;20647;-76
2022/08/06 08:53:23;;;;;;;6.03;4.30;;;;;;;-141.28;100.00;48422.94;5072707;28;20281;-74
2022/08/06 08:55:50;;;;;;;5.47;4.53;;;;;;;-141.28;99.04;48744.66;5072126;28;20189;-75
2022/08/06 08:58:17;;;;;;;6.67;4.20;;;;;;;-141.28;99.09;48854.53;5083542;28;20235;-75
2022/08/06 09:00:45;;;;;;;11.93;4.80;;;;;;;-141.28;94.44;48931.03;5087529;28;20203;-77
2022/08/06 09:03:13;;;;;;;8.43;4.70;;;;;;;-141.28;86.23;48768.19;5072326;28;20204;-75
2022/08/06 09:05:41;;;;;;;10.43;5.47;;;;;;;-141.28;85.59;48717.19;5070876;28;20618;-75
2022/08/06 09:08:11;;;;;;;6.97;4.63;;;;;;;-141.28;77.03;48628.91;5074776;28;20205;-75
2022/08/06 09:10:38;;;;;;;7.47;4.83;;;;;;;-141.28;80.78;48646.56;5072399;28;20188;-76
2022/08/06 09:13:05;;;;;;;6.90;4.20;;;;;;;-141.28;72.72;48619.09;5071758;28;20227;-75
2022/08/06 09:15:32;;;;;;;4.80;4.37;;;;;;;-141.28;79.25;48642.63;5071809;28;20198;-76
2022/08/06 09:17:59;;;;;;;6.73;4.90;;;;;;;-141.28;85.38;48674.03;5071809;28;20196;-76
2022/08/06 09:20:27;;;;;;;9.87;5.40;;;;;;;-141.28;82.26;48634.78;5079402;28;20229;-76
2022/08/06 09:22:54;;;;;;;9.40;4.90;;;;;;;-141.28;76.83;48611.25;5091373;28;20356;-76
2022/08/06 09:25:40;;;;;;;7.83;4.87;;;;;;;-141.28;73.15;48611.25;5091943;28;20218;-74
2022/08/06 09:28:11;;;;;;;8.80;4.80;;;;;;;-141.28;76.50;48626.94;5087825;28;20196;-76
2022/08/06 09:30:39;;;;;;;8.93;4.83;;;;;;;-141.28;78.79;48632.84;5072001;28;20262;-74
2022/08/06 09:33:15;;;;;;;7.47;4.77;;;;;;;-141.28;80.69;48650.50;5071852;28;20229;-75
2022/08/06 09:35:42;;;;;;;7.03;4.30;;;;;;;-141.28;70.05;48611.25;5071409;28;20598;-75
2022/08/06 09:38:11;;;;;;;8.97;4.37;;;;;;;-141.28;72.72;48619.09;5071337;28;20203;-75
2022/08/06 09:40:39;;;;;;;8.23;4.10;;;;;;;-141.28;73.20;48599.47;5071426;28;20271;-77
2022/08/06 09:43:10;;;;;;;8.10;4.10;;;;;;;-141.28;70.06;48607.31;5058658;28;20197;-75
2022/08/06 09:45:45;;;;;;;4.27;3.87;;;;;;;-141.28;72.90;48583.78;5085870;28;20203;-78
2022/08/06 09:48:12;;;;;;;4.80;4.30;;;;;;;-141.28;65.90;48579.88;5082469;28;20270;-74
2022/08/06 09:50:43;;;;;;;6.47;3.83;;;;;;;-141.28;63.39;48544.56;5073931;28;20329;-76
2022/08/06 09:53:10;;;;;;;6.10;3.77;;;;;;;-141.28;66.44;48564.16;5082653;28;20225;-77
2022/08/06 09:55:45;;;;;;;5.23;3.70;;;;;;;-141.28;65.19;48552.41;5079224;28;20199;-73
2022/08/06 09:58:14;;;;;;;3.93;3.50;;;;;;;-141.28;59.80;48491.59;5093981;28;20574;-75
2022/08/06 10:00:41;;;;;;;7.23;4.03;;;;;;;-141.28;57.90;48528.84;5077075;28;20203;-75
2022/08/06 10:03:10;;;;;;;4.63;4.00;;;;;;;-141.28;60.10;48560.25;5080349;28;20207;-76
2022/08/06 10:05:37;;;;;;;4.20;3.80;;;;;;;-141.28;59.67;48540.63;5089147;28;20555;-76
2022/08/06 10:08:08;;;;;;;8.33;3.77;;;;;;;-141.28;55.21;48913.38;5079985;28;20207;-76
2022/08/06 10:10:48;;;;;;;3.90;3.60;;;;;;;-141.28;56.10;48538.66;5071579;28;20200;-76
2022/08/06 10:13:19;;;;;;;5.53;3.47;;;;;;;-141.28;57.44;48544.56;5071221;28;20230;-74
2022/08/06 10:15:48;;;;;;;5.67;3.60;;;;;;;-141.28;55.51;48564.16;5071538;28;20200;-78
2022/08/06 10:18:36;;;;;;;5.93;4.00;;;;;;;-141.28;57.71;48556.31;5071810;28;20286;-74
2022/08/06 10:21:06;;;;;;;6.03;4.10;;;;;;;-141.28;62.70;48572.00;5071153;28;20576;-76
2022/08/06 10:23:35;;;;;;;7.67;4.03;;;;;;;-141.28;58.32;48538.66;5077924;28;20202;-75
2022/08/06 10:26:05;;;;;;;8.70;3.70;;;;;;;-141.28;64.28;48548.47;5090364;28;20721;-75
2022/08/06 10:28:37;;;;;;;7.13;3.80;;;;;;;-141.28;57.63;48501.41;5071100;28;20264;-77
2022/08/06 10:31:05;;;;;;;6.40;4.00;;;;;;;-141.28;57.88;48515.13;5071635;28;20204;-78
2022/08/06 10:33:42;;;;;;;6.77;3.50;;;;;;;-141.28;54.69;48521.00;5070816;28;20713;-77
2022/08/06 10:36:11;;;;;;;5.40;4.00;;;;;;;-141.28;54.09;48528.84;5080888;28;20230;-76
2022/08/06 10:38:42;;;;;;;5.63;3.80;;;;;;;-141.28;55.06;48550.44;5074224;28;20196;-76
2022/08/06 10:41:15;;;;;;;5.67;3.90;;;;;;;-141.28;57.93;48575.94;5071320;28;20292;-75
2022/08/06 10:43:44;;;;;;;9.87;3.77;;;;;;;-141.28;64.55;48609.28;5071273;28;20193;-77
2022/08/06 10:46:15;;;;;;;4.60;3.70;;;;;;;-141.28;66.72;48591.63;5071391;28;20218;-78
2022/08/06 10:48:43;;;;;;;3.80;3.50;;;;;;;-141.28;59.62;48577.91;5071723;28;20200;-75
2022/08/06 10:51:17;;;;;;;4.00;3.60;;;;;;;-141.28;62.80;48466.09;5071010;28;20255;-77
2022/08/06 10:53:49;;;;;;;7.73;4.00;;;;;;;-141.28;56.00;48552.41;5064394;28;20587;-74
2022/08/06 10:56:18;;;;;;;5.67;3.33;;;;;;;-141.28;54.84;48519.06;5071214;28;20208;-79
2022/08/06 10:58:48;;;;;;;8.17;3.90;;;;;;;-141.28;49.01;48917.31;5074093;28;20212;-74
2022/08/06 11:01:25;;;;;;;5.57;3.40;;;;;;;-141.28;48.74;48515.13;5080640;28;20195;-76
2022/08/06 11:04:14;;;;;;;3.90;3.47;;;;;;;-141.28;47.95;48481.78;5071116;28;20643;-77
2022/08/06 11:07:00;;;;;;;4.90;3.10;;;;;;;-141.28;50.06;48479.81;5070776;28;20203;-77
2022/08/06 11:09:50;;;;;;;6.10;3.47;;;;;;;-141.28;49.77;48497.47;5070647;28;20247;-76
2022/08/06 11:12:32;;;;;;;5.73;3.80;;;;;;;-141.28;52.12;48522.97;5070977;28;20207;-76
2022/08/06 11:15:03;;;;;;;4.60;3.57;;;;;;;-141.28;54.86;48548.47;5070677;28;20650;-75
2022/08/06 11:17:43;;;;;;;5.23;3.33;;;;;;;-141.28;53.43;48556.31;5074476;28;20207;-76
2022/08/06 11:20:36;;;;;;;8.43;3.83;;;;;;;-141.28;52.55;48693.66;5063311;28;20591;-76
2022/08/06 11:23:05;;;;;;;3.33;2.97;;;;;;;-141.28;52.43;48528.84;5077396;28;20221;-76
2022/08/06 11:25:39;;;;;;;4.43;3.40;;;;;;;-141.28;50.46;48546.50;5083763;28;20206;-77
2022/08/06 11:28:08;;;;;;;6.47;3.10;;;;;;;-141.28;50.68;48509.25;5080465;28;20700;-74
2022/08/06 11:30:42;;;;;;;4.57;3.73;;;;;;;-141.28;50.71;48546.50;5083143;28;20202;-75
2022/08/06 11:33:10;;;;;;;5.57;3.60;;;;;;;-141.28;51.82;48509.25;5085653;28;20630;-77